sensor_id;sensor_type;location;lat;lon;timestamp;temperature;humidity
44517;DHT22;30223;17.182;-96.766;2023-04-15T04:51:49;25.80;49.90
44517;DHT22;30223;17.182;-96.766;2023-04-15T04:54:16;25.80;50.00
44517;DHT22;30223;17.182;-96.766;2023-04-15T04:56:42;25.80;50.00
44517;DHT22;30223;17.182;-96.766;2023-04-15T04:59:09;25.70;50.00
44517;DHT22;30223;17.182;-96.766;2023-04-15T05:01:36;25.70;49.90
44517;DHT22;30223;17.182;-96.766;2023-04-15T05:04:02;25.70;49.90
44517;DHT22;30223;17.182;-96.766;2023-04-15T05:06:30;25.70;50.00
44517;DHT22;30223;17.182;-96.766;2023-04-15T05:08:57;25.70;49.90
44517;DHT22;30223;17.182;-96.766;2023-04-15T05:11:24;25.70;49.90
44517;DHT22;30223;17.182;-96.766;2023-04-15T05:13:51;25.60;49.80
44517;DHT22;30223;17.182;-96.766;2023-04-15T05:16:17;25.60;49.80
44517;DHT22;30223;17.182;-96.766;2023-04-15T05:18:45;25.60;49.80
44517;DHT22;30223;17.182;-96.766;2023-04-15T18:06:58;24.20;48.30
44517;DHT22;30223;17.182;-96.766;2023-04-15T18:09:25;24.30;48.40
44517;DHT22;30223;17.182;-96.766;2023-04-15T18:11:52;24.30;48.40
44517;DHT22;30223;17.182;-96.766;2023-04-15T18:14:18;24.30;48.30
44517;DHT22;30223;17.182;-96.766;2023-04-15T18:16:45;24.40;48.40
44517;DHT22;30223;17.182;-96.766;2023-04-15T18:19:12;24.40;48.40
44517;DHT22;30223;17.182;-96.766;2023-04-15T18:21:39;24.40;48.40
44517;DHT22;30223;17.182;-96.766;2023-04-15T18:24:06;24.50;48.50
44517;DHT22;30223;17.182;-96.766;2023-04-15T18:26:32;24.50;48.40
44517;DHT22;30223;17.182;-96.766;2023-04-15T18:28:59;24.50;48.50
44517;DHT22;30223;17.182;-96.766;2023-04-15T18:31:26;24.60;48.50
44517;DHT22;30223;17.182;-96.766;2023-04-15T18:47:49;24.90;48.80
44517;DHT22;30223;17.182;-96.766;2023-04-15T18:50:16;24.90;48.80
44517;DHT22;30223;17.182;-96.766;2023-04-15T18:52:43;25.00;49.00
44517;DHT22;30223;17.182;-96.766;2023-04-15T18:55:09;25.00;49.00
44517;DHT22;30223;17.182;-96.766;2023-04-15T18:57:36;25.00;48.90
44517;DHT22;30223;17.182;-96.766;2023-04-15T19:00:11;25.10;49.10
44517;DHT22;30223;17.182;-96.766;2023-04-15T19:02:38;25.10;49.10
44517;DHT22;30223;17.182;-96.766;2023-04-15T19:05:05;25.20;49.10
44517;DHT22;30223;17.182;-96.766;2023-04-15T19:07:32;25.30;49.20
44517;DHT22;30223;17.182;-96.766;2023-04-15T19:09:59;25.30;49.90
44517;DHT22;30223;17.182;-96.766;2023-04-15T19:12:26;25.30;49.80
44517;DHT22;30223;17.182;-96.766;2023-04-15T19:14:52;25.30;49.30
44517;DHT22;30223;17.182;-96.766;2023-04-15T19:17:19;25.40;49.40
44517;DHT22;30223;17.182;-96.766;2023-04-15T19:19:46;25.50;49.40
44517;DHT22;30223;17.182;-96.766;2023-04-15T19:22:12;25.50;49.40
44517;DHT22;30223;17.182;-96.766;2023-04-15T19:24:39;25.50;49.40
44517;DHT22;30223;17.182;-96.766;2023-04-15T19:27:06;25.60;49.40
44517;DHT22;30223;17.182;-96.766;2023-04-15T19:29:33;25.60;49.50
44517;DHT22;30223;17.182;-96.766;2023-04-15T19:31:59;25.70;49.50
44517;DHT22;30223;17.182;-96.766;2023-04-15T19:34:26;25.70;49.50
44517;DHT22;30223;17.182;-96.766;2023-04-15T19:36:53;25.80;49.60
44517;DHT22;30223;17.182;-96.766;2023-04-15T19:39:19;25.80;49.60
44517;DHT22;30223;17.182;-96.766;2023-04-15T19:41:46;25.90;49.70
44517;DHT22;30223;17.182;-96.766;2023-04-15T20:01:03;26.30;50.00
44517;DHT22;30223;17.182;-96.766;2023-04-15T20:03:30;26.40;50.10
44517;DHT22;30223;17.182;-96.766;2023-04-15T20:05:56;26.40;50.10
44517;DHT22;30223;17.182;-96.766;2023-04-15T20:08:23;26.40;50.10
44517;DHT22;30223;17.182;-96.766;2023-04-15T20:10:50;26.50;50.20
44517;DHT22;30223;17.182;-96.766;2023-04-15T20:13:16;26.50;50.20
44517;DHT22;30223;17.182;-96.766;2023-04-15T20:15:43;26.60;50.30
44517;DHT22;30223;17.182;-96.766;2023-04-15T20:18:10;26.60;50.30
44517;DHT22;30223;17.182;-96.766;2023-04-15T20:20:39;26.70;50.30
44517;DHT22;30223;17.182;-96.766;2023-04-15T20:23:06;26.70;50.40
44517;DHT22;30223;17.182;-96.766;2023-04-15T20:25:33;26.80;50.50
44517;DHT22;30223;17.182;-96.766;2023-04-15T20:27:59;26.90;50.60
44517;DHT22;30223;17.182;-96.766;2023-04-15T20:30:26;26.90;50.60
44517;DHT22;30223;17.182;-96.766;2023-04-15T20:32:54;27.00;50.70
44517;DHT22;30223;17.182;-96.766;2023-04-15T20:35:21;27.00;50.70
44517;DHT22;30223;17.182;-96.766;2023-04-15T20:37:48;27.10;50.80
44517;DHT22;30223;17.182;-96.766;2023-04-15T20:40:15;27.10;50.80
44517;DHT22;30223;17.182;-96.766;2023-04-15T20:42:41;27.10;50.80
44517;DHT22;30223;17.182;-96.766;2023-04-15T20:45:09;27.20;50.90
44517;DHT22;30223;17.182;-96.766;2023-04-15T20:47:35;27.30;50.90
44517;DHT22;30223;17.182;-96.766;2023-04-15T20:50:02;27.40;51.10
44517;DHT22;30223;17.182;-96.766;2023-04-15T20:52:29;27.40;51.10
44517;DHT22;30223;17.182;-96.766;2023-04-15T20:54:56;27.50;51.20
44517;DHT22;30223;17.182;-96.766;2023-04-15T20:57:22;27.50;51.20
44517;DHT22;30223;17.182;-96.766;2023-04-15T20:59:52;27.50;51.10
44517;DHT22;30223;17.182;-96.766;2023-04-15T21:02:18;27.60;51.20
44517;DHT22;30223;17.182;-96.766;2023-04-15T21:04:45;27.60;51.20
44517;DHT22;30223;17.182;-96.766;2023-04-15T21:07:12;27.70;51.30
44517;DHT22;30223;17.182;-96.766;2023-04-15T21:09:38;27.80;51.40
44517;DHT22;30223;17.182;-96.766;2023-04-15T21:12:06;27.80;51.40
44517;DHT22;30223;17.182;-96.766;2023-04-15T21:14:33;27.90;51.40
44517;DHT22;30223;17.182;-96.766;2023-04-15T21:17:03;27.90;51.40
44517;DHT22;30223;17.182;-96.766;2023-04-15T21:19:32;28.00;51.50
44517;DHT22;30223;17.182;-96.766;2023-04-15T21:21:59;28.10;51.60
44517;DHT22;30223;17.182;-96.766;2023-04-15T21:24:26;28.10;51.60
44517;DHT22;30223;17.182;-96.766;2023-04-15T21:26:52;28.10;51.60
44517;DHT22;30223;17.182;-96.766;2023-04-15T21:29:19;28.20;51.70
44517;DHT22;30223;17.182;-96.766;2023-04-15T21:31:46;28.20;51.60
44517;DHT22;30223;17.182;-96.766;2023-04-15T21:34:12;28.30;51.70
44517;DHT22;30223;17.182;-96.766;2023-04-15T21:36:39;28.40;51.80
44517;DHT22;30223;17.182;-96.766;2023-04-15T21:39:06;28.40;51.80
44517;DHT22;30223;17.182;-96.766;2023-04-15T21:41:32;28.40;51.80
44517;DHT22;30223;17.182;-96.766;2023-04-15T21:43:59;28.50;51.90
44517;DHT22;30223;17.182;-96.766;2023-04-15T21:46:25;28.50;51.80
44517;DHT22;30223;17.182;-96.766;2023-04-15T21:48:52;28.60;51.90
44517;DHT22;30223;17.182;-96.766;2023-04-15T21:51:19;28.60;51.90
44517;DHT22;30223;17.182;-96.766;2023-04-15T21:53:46;28.70;51.90
44517;DHT22;30223;17.182;-96.766;2023-04-15T21:56:13;28.70;51.90
44517;DHT22;30223;17.182;-96.766;2023-04-15T21:58:39;28.70;51.90
44517;DHT22;30223;17.182;-96.766;2023-04-15T22:01:09;28.80;51.90
44517;DHT22;30223;17.182;-96.766;2023-04-15T22:03:35;28.80;51.80
44517;DHT22;30223;17.182;-96.766;2023-04-15T22:06:02;28.80;51.80
44517;DHT22;30223;17.182;-96.766;2023-04-15T22:08:30;28.80;51.80
44517;DHT22;30223;17.182;-96.766;2023-04-15T22:10:58;28.90;51.80
44517;DHT22;30223;17.182;-96.766;2023-04-15T22:13:24;28.80;51.70
44517;DHT22;30223;17.182;-96.766;2023-04-15T22:15:51;28.80;51.70
44517;DHT22;30223;17.182;-96.766;2023-04-15T22:18:17;28.80;51.60
44517;DHT22;30223;17.182;-96.766;2023-04-15T22:20:44;28.80;51.60
44517;DHT22;30223;17.182;-96.766;2023-04-15T22:23:11;28.80;51.60
44517;DHT22;30223;17.182;-96.766;2023-04-15T22:25:37;28.80;51.60
44517;DHT22;30223;17.182;-96.766;2023-04-15T22:28:05;28.90;51.70
44517;DHT22;30223;17.182;-96.766;2023-04-15T22:30:40;28.90;51.60
44517;DHT22;30223;17.182;-96.766;2023-04-15T22:33:08;28.90;51.60
44517;DHT22;30223;17.182;-96.766;2023-04-15T22:35:35;28.90;51.50
44517;DHT22;30223;17.182;-96.766;2023-04-15T22:38:03;28.90;51.60
44517;DHT22;30223;17.182;-96.766;2023-04-15T22:40:30;28.90;51.60
44517;DHT22;30223;17.182;-96.766;2023-04-15T22:42:56;28.90;51.60
44517;DHT22;30223;17.182;-96.766;2023-04-15T22:45:23;28.90;51.60
44517;DHT22;30223;17.182;-96.766;2023-04-15T22:47:50;28.90;51.70
44517;DHT22;30223;17.182;-96.766;2023-04-15T22:50:16;28.90;51.70
44517;DHT22;30223;17.182;-96.766;2023-04-15T22:52:43;28.90;51.70
44517;DHT22;30223;17.182;-96.766;2023-04-15T22:55:11;28.90;52.20
44517;DHT22;30223;17.182;-96.766;2023-04-15T22:57:38;28.90;51.60
44517;DHT22;30223;17.182;-96.766;2023-04-15T23:00:06;28.90;51.60
44517;DHT22;30223;17.182;-96.766;2023-04-15T23:02:33;28.90;51.60
44517;DHT22;30223;17.182;-96.766;2023-04-15T23:04:59;28.90;51.60
44517;DHT22;30223;17.182;-96.766;2023-04-15T23:07:26;28.90;51.60
44517;DHT22;30223;17.182;-96.766;2023-04-15T23:09:53;28.90;51.60
44517;DHT22;30223;17.182;-96.766;2023-04-15T23:12:19;28.80;51.50
44517;DHT22;30223;17.182;-96.766;2023-04-15T23:14:46;28.90;51.60
44517;DHT22;30223;17.182;-96.766;2023-04-15T23:17:13;28.80;51.60
44517;DHT22;30223;17.182;-96.766;2023-04-15T23:19:39;28.80;51.60
44517;DHT22;30223;17.182;-96.766;2023-04-15T23:22:06;28.80;51.60
44517;DHT22;30223;17.182;-96.766;2023-04-15T23:24:35;28.80;52.30
44517;DHT22;30223;17.182;-96.766;2023-04-15T23:27:01;28.80;51.60
44517;DHT22;30223;17.182;-96.766;2023-04-15T23:29:29;28.80;51.60
44517;DHT22;30223;17.182;-96.766;2023-04-15T23:31:56;28.80;52.30
44517;DHT22;30223;17.182;-96.766;2023-04-15T23:34:22;28.80;51.70
44517;DHT22;30223;17.182;-96.766;2023-04-15T23:36:49;28.80;51.70
44517;DHT22;30223;17.182;-96.766;2023-04-15T23:39:16;28.70;51.60
44517;DHT22;30223;17.182;-96.766;2023-04-15T23:41:42;28.70;51.70
44517;DHT22;30223;17.182;-96.766;2023-04-15T23:44:09;28.70;51.70
44517;DHT22;30223;17.182;-96.766;2023-04-15T23:46:35;28.70;51.60
44517;DHT22;30223;17.182;-96.766;2023-04-15T23:49:02;28.70;51.60
44517;DHT22;30223;17.182;-96.766;2023-04-15T23:51:29;28.70;51.60
44517;DHT22;30223;17.182;-96.766;2023-04-15T23:53:55;28.70;51.60
44517;DHT22;30223;17.182;-96.766;2023-04-15T23:56:22;28.70;51.60
44517;DHT22;30223;17.182;-96.766;2023-04-15T23:58:49;28.70;51.70
